Airfield :
LOGIN :

Register | Disclaimer

   EN    FR    IT 

 










Legend :    VFR   Marginal VFR   IFR   Intensive IFR   Very Intensive IFR
Visi :
Ceiling :
>= 8 km
>= 3000ft
5 to 8 km
1000 to 3000 ft
1500m to 5 km
500 to 1000 ft
800 to 1500m
200 to 500 ft
< 800m
< 200 ft
Symbols :   Thunderstorms  Fog  Heavy snow  Heavy precipitations  Wind > 20 kt
SIGMETs :     Misc.  Thunderstorms  Icing  Turbulence  Mountain Waves  Volcanic Ashes






- Airport Elevation : 7 ft
- IATA code : VCE


LIPZ - Marco Polo Int. Venezia

CURRENT METAR :
  • 230250Z 32003KT 260V350 9999 FEW010 SCT060 11/10 Q1021 NOSIG

EXPIRED METARs :
  • 230220Z 17003KT 150V240 8000 FEW010 SCT060 13/12 Q1021 NOSIG
  • 230150Z 16002KT 9999 SCT060 13/11 Q1021 NOSIG
  • 230120Z 13004KT 9999 FEW010 12/11 Q1021 NOSIG
  • 230050Z 06002KT 9999 FEW010 11/10 Q1021 NOSIG
  • 230020Z 04003KT 9999 SCT010 11/10 Q1021 NOSIG

TAF TAF LIPZ
Valid from the 23 at 00:00 until the 24 at 06:00 UTC


222300Z 2300/2406 VRB05KT CAVOK
TEMPO 2302/2306 1200 BCFG
BECMG 2310/2312 16010KT
BECMG 2319/2321 03006KT



MET'MAP, your aeronautical weather chart ! - Copyright ORBIFLY December 2007 - Disclaimer

ORBIFLY MET'MAP TEAM :

Programming & Development : Alexandra Zaïnal
Concept & original design : Baudouin d'Aumeries
Assistance for programming : Marc-Olivier Méhu
Technical & hardware support : Manuel Goepfert

Contact : metmap@orbifly.com




SOURCES & CREDITS :

   NOAA